createdAt,value
2018-03-22T00:02:12.617Z,6.50
2018-03-22T00:04:39.234Z,5.40
2018-03-22T00:07:05.693Z,5.07
2018-03-22T00:09:31.894Z,6.37
2018-03-22T00:11:58.882Z,6.40
2018-03-22T00:14:25.178Z,3.60
2018-03-22T00:16:52.151Z,6.03
2018-03-22T00:19:18.619Z,9.10
2018-03-22T00:21:44.827Z,4.70
2018-03-22T00:24:11.076Z,7.33
2018-03-22T00:26:37.249Z,3.77
2018-03-22T00:29:03.500Z,2.93
2018-03-22T00:31:29.679Z,4.90
2018-03-22T00:33:56.809Z,9.53
2018-03-22T00:36:23.083Z,3.83
2018-03-22T00:38:49.447Z,5.20
2018-03-22T00:41:15.987Z,7.93
2018-03-22T00:43:43.755Z,3.80
2018-03-22T00:46:09.971Z,2.83
2018-03-22T00:48:36.154Z,4.20
2018-03-22T00:51:02.413Z,7.90
2018-03-22T00:53:28.631Z,3.20
2018-03-22T00:55:54.983Z,6.23
2018-03-22T00:58:21.256Z,10.50
2018-03-22T01:00:47.452Z,6.63
2018-03-22T01:03:15.193Z,3.30
2018-03-22T01:05:41.462Z,5.20
2018-03-22T01:08:08.535Z,10.20
2018-03-22T01:10:34.685Z,3.97
2018-03-22T01:13:00.891Z,6.93
2018-03-22T01:15:27.189Z,4.07
2018-03-22T01:17:54.251Z,3.80
2018-03-22T01:20:20.475Z,5.37
2018-03-22T01:22:46.758Z,14.00
2018-03-22T01:25:13.896Z,6.20
2018-03-22T01:27:40.220Z,8.90
2018-03-22T01:30:18.743Z,8.67
2018-03-22T01:32:45.721Z,10.80
2018-03-22T01:35:12.728Z,12.83
2018-03-22T01:37:38.911Z,16.27
2018-03-22T01:40:05.254Z,5.67
2018-03-22T01:42:31.466Z,5.43
2018-03-22T01:44:57.648Z,9.57
2018-03-22T01:47:24.652Z,10.73
2018-03-22T01:49:50.879Z,12.13
2018-03-22T01:52:17.235Z,17.20
2018-03-22T01:54:43.615Z,11.97
2018-03-22T01:57:09.803Z,10.50
2018-03-22T01:59:36.806Z,10.27
2018-03-22T02:02:03.179Z,10.60
2018-03-22T02:04:29.405Z,8.70
2018-03-22T02:06:57.275Z,13.40
2018-03-22T02:09:24.331Z,14.80
2018-03-22T02:11:51.321Z,13.30
2018-03-22T02:14:17.580Z,10.10
2018-03-22T02:16:43.971Z,10.30
2018-03-22T02:19:10.204Z,14.33
2018-03-22T02:21:36.397Z,13.40
2018-03-22T02:24:03.553Z,21.37
2018-03-22T02:26:29.791Z,13.50
2018-03-22T02:28:56.086Z,14.77
2018-03-22T02:31:23.012Z,14.17
2018-03-22T02:33:49.402Z,12.70
2018-03-22T02:36:15.677Z,18.73
2018-03-22T02:38:42.641Z,13.83
2018-03-22T02:41:09.745Z,21.00
2018-03-22T02:43:42.935Z,20.07
2018-03-22T02:46:09.202Z,15.17
2018-03-22T02:48:36.326Z,16.37
2018-03-22T02:51:02.736Z,17.27
2018-03-22T02:53:28.951Z,15.90
2018-03-22T02:55:55.164Z,15.00
2018-03-22T02:58:21.468Z,17.83
2018-03-22T03:00:48.392Z,19.23
2018-03-22T03:03:15.380Z,20.73
2018-03-22T03:05:41.806Z,19.20
2018-03-22T03:08:08.232Z,16.03
2018-03-22T03:10:34.500Z,15.70
2018-03-22T03:13:00.779Z,16.37
2018-03-22T03:15:27.140Z,16.03
2018-03-22T03:17:53.427Z,19.90
2018-03-22T03:20:20.351Z,16.90
2018-03-22T03:22:47.368Z,17.30
2018-03-22T03:25:13.692Z,19.83
2018-03-22T03:27:39.923Z,13.20
2018-03-22T03:30:06.146Z,17.37
2018-03-22T03:32:32.372Z,16.87
2018-03-22T03:34:58.733Z,15.10
2018-03-22T03:37:25.768Z,17.03
2018-03-22T03:39:52.011Z,13.03
2018-03-22T03:42:19.167Z,14.57
2018-03-22T03:44:46.134Z,12.57
2018-03-22T03:47:12.518Z,11.93
2018-03-22T03:49:38.776Z,11.10
2018-03-22T03:52:05.770Z,10.50
2018-03-22T03:54:32.102Z,13.00
2018-03-22T03:56:58.364Z,9.37
2018-03-22T04:02:18.412Z,11.80
2018-03-22T04:04:44.713Z,12.00
2018-03-22T04:07:11.688Z,15.07
2018-03-22T04:09:37.959Z,12.70
2018-03-22T04:12:04.371Z,7.63
2018-03-22T04:14:30.700Z,9.50
2018-03-22T04:16:56.874Z,9.20
2018-03-22T04:19:23.284Z,10.13
2018-03-22T04:21:50.332Z,13.77
2018-03-22T04:24:17.337Z,10.97
2018-03-22T04:26:43.736Z,9.47
2018-03-22T04:29:10.207Z,10.20
2018-03-22T04:31:36.551Z,8.03
2018-03-22T04:34:02.889Z,10.83
2018-03-22T04:36:29.083Z,12.37
2018-03-22T04:38:55.360Z,10.83
2018-03-22T04:41:22.345Z,12.83
2018-03-22T04:43:48.504Z,13.27
2018-03-22T04:46:14.799Z,16.87
2018-03-22T04:48:41.086Z,12.67
2018-03-22T04:51:07.411Z,17.57
2018-03-22T04:53:34.382Z,18.80
2018-03-22T04:56:00.623Z,19.77
2018-03-22T04:58:26.869Z,29.53
2018-03-22T05:00:53.250Z,26.27
2018-03-22T05:03:19.546Z,26.73
2018-03-22T05:05:46.483Z,26.33
2018-03-22T05:08:12.859Z,23.50
2018-03-22T05:10:39.129Z,22.23
2018-03-22T05:13:05.390Z,22.23
2018-03-22T05:15:32.323Z,24.60
2018-03-22T05:17:59.361Z,20.57
2018-03-22T05:20:26.396Z,31.43
2018-03-22T05:22:52.715Z,28.70
2018-03-22T05:25:18.903Z,24.30
2018-03-22T05:27:45.114Z,26.60
2018-03-22T05:30:11.444Z,26.60
2018-03-22T05:32:38.648Z,29.23
2018-03-22T05:35:04.918Z,34.87
2018-03-22T05:37:31.942Z,31.03
2018-03-22T05:39:59.276Z,31.70
2018-03-22T05:42:25.507Z,41.80
2018-03-22T05:44:51.755Z,31.60
2018-03-22T05:47:18.831Z,38.83
2018-03-22T05:49:45.740Z,32.87
2018-03-22T05:52:12.073Z,45.60
2018-03-22T05:54:39.009Z,31.63
2018-03-22T05:57:06.182Z,29.43
2018-03-22T05:59:33.263Z,34.03
2018-03-22T06:01:59.932Z,30.40
2018-03-22T06:04:26.901Z,33.10
2018-03-22T06:06:53.917Z,30.10
2018-03-22T06:09:20.965Z,35.03
2018-03-22T06:11:48.147Z,32.20
2018-03-22T06:14:15.251Z,33.77
2018-03-22T06:16:41.464Z,35.03
2018-03-22T06:19:07.703Z,33.57
2018-03-22T06:21:34.761Z,32.67
2018-03-22T06:24:01.739Z,36.93
2018-03-22T06:26:27.940Z,40.93
2018-03-22T06:28:55.719Z,35.13
2018-03-22T06:31:22.877Z,33.30
2018-03-22T06:33:49.391Z,28.30
2018-03-22T06:36:15.801Z,39.63
2018-03-22T06:38:42.825Z,33.00
2018-03-22T06:41:09.154Z,35.10
2018-03-22T06:43:35.470Z,35.70
2018-03-22T06:46:01.705Z,33.67
2018-03-22T06:48:27.934Z,35.93
2018-03-22T06:50:54.263Z,33.53
2018-03-22T06:53:20.779Z,40.73
2018-03-22T06:55:47.174Z,35.30
2018-03-22T06:58:14.156Z,38.67
2018-03-22T07:00:40.324Z,35.50
2018-03-22T07:03:06.637Z,37.20
2018-03-22T07:05:32.975Z,33.07
2018-03-22T07:07:59.330Z,35.03
2018-03-22T07:10:26.370Z,33.03
2018-03-22T07:12:53.399Z,30.07
2018-03-22T07:15:21.150Z,34.40
2018-03-22T07:17:47.476Z,33.13
2018-03-22T07:20:13.692Z,30.87
2018-03-22T07:22:39.989Z,36.53
2018-03-22T07:25:06.202Z,35.77
2018-03-22T07:27:33.379Z,31.37
2018-03-22T07:29:59.654Z,43.47
2018-03-22T07:32:26.684Z,29.37
2018-03-22T07:34:52.927Z,36.53
2018-03-22T07:37:20.942Z,32.80
2018-03-22T07:39:47.164Z,35.20
2018-03-22T07:42:13.475Z,38.67
2018-03-22T07:44:40.544Z,31.73
2018-03-22T07:47:06.810Z,37.30
2018-03-22T07:49:33.012Z,33.40
2018-03-22T07:51:59.234Z,32.10
2018-03-22T07:54:25.602Z,38.27
2018-03-22T07:56:51.803Z,39.00
2018-03-22T07:59:18.188Z,40.47
2018-03-22T08:01:45.296Z,45.47
2018-03-22T08:04:11.881Z,42.73
2018-03-22T08:06:38.212Z,34.70
2018-03-22T08:09:04.403Z,37.43
2018-03-22T08:11:30.596Z,43.73
2018-03-22T08:13:56.907Z,34.53
2018-03-22T08:16:23.173Z,35.83
2018-03-22T08:18:49.426Z,31.70
2018-03-22T08:21:16.439Z,31.57
2018-03-22T08:23:42.803Z,29.27
2018-03-22T08:26:09.765Z,35.47
2018-03-22T08:28:36.109Z,30.40
2018-03-22T08:31:02.315Z,36.77
2018-03-22T08:33:28.546Z,37.43
2018-03-22T08:35:54.771Z,30.40
2018-03-22T08:38:20.975Z,34.10
2018-03-22T08:40:47.867Z,34.23
2018-03-22T08:43:14.770Z,36.70
2018-03-22T08:45:41.144Z,33.10
2018-03-22T08:48:07.458Z,37.17
2018-03-22T08:50:33.769Z,39.60
2018-03-22T08:53:00.245Z,36.00
2018-03-22T08:55:26.444Z,29.70
2018-03-22T08:57:53.043Z,37.90
2018-03-22T09:00:20.044Z,34.53
2018-03-22T09:02:46.357Z,31.50
2018-03-22T09:05:12.616Z,33.77
2018-03-22T09:07:38.921Z,39.17
2018-03-22T09:10:05.224Z,32.07
2018-03-22T09:12:31.484Z,33.20
2018-03-22T09:14:58.210Z,33.07
2018-03-22T09:17:24.507Z,44.03
2018-03-22T09:19:50.924Z,28.60
2018-03-22T09:22:17.155Z,30.40
2018-03-22T09:24:44.173Z,28.63
2018-03-22T09:27:10.597Z,32.20
2018-03-22T09:29:37.043Z,25.80
2018-03-22T09:32:04.033Z,29.30
2018-03-22T09:34:30.435Z,26.17
2018-03-22T09:36:56.736Z,29.77
2018-03-22T09:39:23.010Z,27.13
2018-03-22T09:41:49.426Z,26.00
2018-03-22T09:44:16.334Z,25.70
2018-03-22T09:46:42.851Z,25.67
2018-03-22T09:49:09.231Z,32.87
2018-03-22T09:51:37.186Z,25.40
2018-03-22T09:54:03.596Z,44.73
2018-03-22T09:56:29.867Z,27.00
2018-03-22T09:58:56.087Z,25.50
2018-03-22T10:01:23.152Z,25.60
2018-03-22T10:03:49.427Z,37.63
2018-03-22T10:06:15.920Z,29.50
2018-03-22T10:08:42.367Z,28.03
2018-03-22T10:11:08.734Z,33.23
2018-03-22T10:13:34.956Z,26.00
2018-03-22T10:16:02.814Z,26.47
2018-03-22T10:18:29.950Z,27.63
2018-03-22T10:20:56.234Z,26.17
2018-03-22T10:23:23.206Z,29.10
2018-03-22T10:25:49.462Z,28.50
2018-03-22T10:28:15.789Z,29.67
2018-03-22T10:30:41.949Z,24.43
2018-03-22T10:33:09.059Z,29.77
2018-03-22T10:35:36.468Z,26.90
2018-03-22T10:38:03.524Z,27.97
2018-03-22T10:40:29.991Z,22.73
2018-03-22T10:42:56.200Z,24.93
2018-03-22T10:45:22.545Z,26.77
2018-03-22T10:47:48.880Z,24.10
2018-03-22T10:50:15.203Z,23.83
2018-03-22T10:52:41.598Z,23.10
2018-03-22T10:55:07.900Z,24.57
2018-03-22T10:57:34.979Z,21.60
2018-03-22T11:00:01.271Z,24.60
2018-03-22T11:02:34.290Z,22.37
2018-03-22T11:05:00.679Z,22.10
2018-03-22T11:07:27.763Z,22.83
2018-03-22T11:09:54.133Z,18.93
2018-03-22T11:12:20.547Z,36.83
2018-03-22T11:14:46.812Z,23.90
2018-03-22T11:17:13.877Z,24.20
2018-03-22T11:19:40.875Z,17.17
2018-03-22T11:22:07.209Z,21.33
2018-03-22T11:24:33.487Z,24.20
2018-03-22T11:27:00.588Z,16.73
2018-03-22T11:29:27.134Z,19.43
2018-03-22T11:31:53.552Z,23.30
2018-03-22T11:34:19.736Z,16.40
2018-03-22T11:36:46.042Z,15.23
2018-03-22T11:39:13.093Z,16.60
2018-03-22T11:41:40.672Z,19.90
2018-03-22T11:44:07.416Z,24.30
2018-03-22T11:46:34.154Z,18.03
2018-03-22T11:49:00.453Z,15.10
2018-03-22T11:51:27.458Z,12.00
2018-03-22T11:53:53.765Z,17.60
2018-03-22T11:56:20.717Z,14.40
2018-03-22T11:58:47.172Z,12.17
2018-03-22T12:01:14.229Z,13.10
2018-03-22T12:03:40.606Z,14.50
2018-03-22T12:06:06.907Z,13.20
2018-03-22T12:08:33.873Z,15.23
2018-03-22T12:11:00.140Z,12.00
2018-03-22T12:13:26.410Z,13.87
2018-03-22T12:15:53.419Z,10.77
2018-03-22T12:18:19.847Z,14.93
2018-03-22T12:20:46.110Z,12.73
2018-03-22T12:23:12.513Z,18.07
2018-03-22T12:25:40.251Z,15.30
2018-03-22T12:28:06.559Z,16.07
2018-03-22T12:30:32.762Z,13.33
2018-03-22T12:32:59.020Z,22.93
2018-03-22T12:35:25.501Z,17.37
2018-03-22T12:37:52.614Z,15.83
2018-03-22T12:40:18.972Z,11.70
2018-03-22T12:42:45.301Z,15.37
2018-03-22T12:45:12.739Z,12.27
2018-03-22T12:47:38.981Z,12.20
2018-03-22T12:50:06.040Z,15.20
2018-03-22T12:52:33.062Z,10.97
2018-03-22T12:54:59.629Z,10.57
2018-03-22T12:57:26.681Z,11.40
2018-03-22T12:59:53.893Z,10.90
2018-03-22T13:02:20.678Z,11.93
2018-03-22T13:04:47.676Z,9.87
2018-03-22T13:07:14.084Z,10.83
2018-03-22T13:09:40.416Z,11.70
2018-03-22T13:12:06.765Z,10.77
2018-03-22T13:14:33.077Z,8.90
2018-03-22T13:16:59.569Z,8.90
2018-03-22T13:19:26.885Z,9.80
2018-03-22T13:21:53.238Z,10.53
2018-03-22T13:24:19.520Z,11.33
2018-03-22T13:26:46.684Z,10.20
2018-03-22T13:29:12.972Z,9.33
2018-03-22T13:31:39.211Z,12.17
2018-03-22T13:34:05.581Z,9.13
2018-03-22T13:36:32.044Z,9.70
2018-03-22T13:39:05.450Z,10.63
2018-03-22T13:41:31.927Z,7.97
2018-03-22T13:43:58.358Z,8.00
2018-03-22T13:46:24.561Z,8.43
2018-03-22T13:48:51.019Z,7.87
2018-03-22T13:51:17.577Z,10.27
2018-03-22T13:53:44.702Z,8.10
2018-03-22T13:56:11.031Z,7.10
2018-03-22T13:58:37.212Z,6.93
2018-03-22T14:01:03.668Z,7.10
2018-03-22T14:03:30.104Z,6.67
2018-03-22T14:05:56.450Z,7.00
2018-03-22T14:08:22.927Z,6.27
2018-03-22T14:10:49.974Z,6.57
2018-03-22T14:13:16.322Z,6.83
2018-03-22T14:15:42.633Z,5.80
2018-03-22T14:18:09.836Z,6.93
2018-03-22T14:20:36.279Z,5.80
2018-03-22T14:23:02.664Z,6.90
2018-03-22T14:25:28.930Z,7.20
2018-03-22T14:27:55.189Z,6.97
2018-03-22T14:30:22.161Z,5.57
2018-03-22T14:32:48.373Z,5.97
2018-03-22T14:35:15.406Z,7.10
2018-03-22T14:37:42.421Z,6.00
2018-03-22T14:40:08.682Z,6.17
2018-03-22T14:42:34.950Z,6.77
2018-03-22T14:45:01.144Z,6.67
2018-03-22T14:47:28.186Z,6.10
2018-03-22T14:49:55.238Z,6.80
2018-03-22T14:52:21.546Z,6.93
2018-03-22T14:54:48.714Z,7.27
2018-03-22T14:57:15.739Z,8.53
2018-03-22T14:59:42.077Z,6.90
2018-03-22T15:02:09.213Z,6.40
2018-03-22T15:04:35.537Z,7.40
2018-03-22T15:07:01.813Z,5.77
2018-03-22T15:09:28.231Z,5.40
2018-03-22T15:11:54.621Z,6.60
2018-03-22T15:14:21.689Z,4.87
2018-03-22T15:16:48.816Z,6.30
2018-03-22T15:19:15.127Z,6.93
2018-03-22T15:21:41.584Z,4.73
2018-03-22T15:24:08.708Z,5.43
2018-03-22T15:26:35.085Z,4.60
2018-03-22T15:29:02.057Z,5.13
2018-03-22T15:31:28.233Z,5.00
2018-03-22T15:33:54.438Z,6.43
2018-03-22T15:36:20.656Z,8.97
2018-03-22T15:38:48.456Z,9.13
2018-03-22T15:41:15.678Z,4.13
2018-03-22T15:43:41.930Z,4.10
2018-03-22T15:46:09.182Z,3.60
2018-03-22T15:48:42.171Z,3.90
2018-03-22T15:51:09.193Z,3.73
2018-03-22T15:53:35.453Z,4.20
2018-03-22T15:56:02.493Z,3.97
2018-03-22T15:58:29.570Z,3.37
2018-03-22T16:00:55.898Z,3.53
2018-03-22T16:03:22.232Z,3.50
2018-03-22T16:05:48.678Z,9.77
2018-03-22T16:08:14.989Z,13.13
2018-03-22T16:10:41.224Z,15.33
2018-03-22T16:13:07.427Z,6.20
2018-03-22T16:15:34.400Z,3.83
2018-03-22T16:18:00.757Z,3.53
2018-03-22T16:20:27.085Z,6.90
2018-03-22T16:22:53.269Z,9.47
2018-03-22T16:25:19.487Z,4.10
2018-03-22T16:27:45.722Z,4.70
2018-03-22T16:30:11.984Z,6.20
2018-03-22T16:32:38.336Z,3.37
2018-03-22T16:35:05.567Z,2.47
2018-03-22T16:37:32.014Z,5.87
2018-03-22T16:39:58.317Z,9.70
2018-03-22T16:42:24.659Z,2.87
2018-03-22T16:44:51.297Z,3.53
2018-03-22T16:47:17.842Z,5.60
2018-03-22T16:49:44.968Z,2.67
2018-03-22T16:52:11.261Z,2.70
2018-03-22T16:54:37.629Z,7.87
2018-03-22T16:57:04.619Z,3.40
2018-03-22T16:59:31.726Z,2.57
2018-03-22T17:01:58.573Z,2.30
2018-03-22T17:04:25.202Z,2.20
2018-03-22T17:06:51.462Z,2.17
2018-03-22T17:09:18.478Z,2.50
2018-03-22T17:11:44.990Z,4.60
2018-03-22T17:14:11.241Z,2.60
2018-03-22T17:16:39.002Z,7.83
2018-03-22T17:19:05.431Z,4.10
2018-03-22T17:21:31.803Z,3.90
2018-03-22T17:23:58.849Z,3.43
2018-03-22T17:26:25.875Z,2.53
2018-03-22T17:28:53.001Z,2.60
2018-03-22T17:31:19.286Z,2.00
2018-03-22T17:33:45.520Z,5.07
2018-03-22T17:36:11.721Z,10.57
2018-03-22T17:38:38.778Z,10.63
2018-03-22T17:41:05.190Z,4.37
2018-03-22T17:43:32.205Z,5.37
2018-03-22T17:45:58.468Z,3.00
2018-03-22T17:48:25.693Z,2.90
2018-03-22T17:50:53.603Z,3.30
2018-03-22T17:53:19.871Z,3.20
2018-03-22T17:55:46.262Z,3.10
2018-03-22T17:58:12.569Z,2.87
2018-03-22T18:00:39.474Z,2.67
2018-03-22T18:03:05.811Z,3.30
2018-03-22T18:05:33.547Z,4.20
2018-03-22T18:07:59.799Z,2.90
2018-03-22T18:10:26.098Z,3.50
2018-03-22T18:12:52.509Z,3.77
2018-03-22T18:15:18.802Z,4.90
2018-03-22T18:17:45.887Z,3.70
2018-03-22T18:20:12.201Z,4.07
2018-03-22T18:22:39.130Z,4.17
2018-03-22T18:25:06.207Z,2.50
2018-03-22T18:27:32.344Z,3.40
2018-03-22T18:29:58.626Z,5.30
2018-03-22T18:32:25.613Z,3.10
2018-03-22T18:34:52.836Z,4.03
2018-03-22T18:37:19.127Z,5.80
2018-03-22T18:39:46.070Z,6.00
2018-03-22T18:42:12.731Z,5.60
2018-03-22T18:44:39.754Z,4.03
2018-03-22T18:47:06.077Z,8.03
2018-03-22T18:49:32.420Z,35.63
2018-03-22T18:51:58.895Z,5.10
2018-03-22T18:54:25.209Z,2.67
2018-03-22T18:56:52.807Z,2.57
2018-03-22T18:59:19.098Z,2.40
2018-03-22T19:01:46.180Z,1.93
2018-03-22T19:04:12.941Z,2.50
2018-03-22T19:06:39.269Z,2.40
2018-03-22T19:09:05.603Z,2.33
2018-03-22T19:11:33.219Z,1.87
2018-03-22T19:13:59.594Z,2.20
2018-03-22T19:16:25.788Z,2.33
2018-03-22T19:18:52.087Z,2.60
2018-03-22T19:21:19.000Z,3.30
2018-03-22T19:23:45.923Z,3.80
2018-03-22T19:26:12.192Z,3.87
2018-03-22T19:28:39.122Z,4.60
2018-03-22T19:31:06.188Z,6.43
2018-03-22T19:33:32.413Z,7.60
2018-03-22T19:35:59.392Z,12.13
2018-03-22T19:38:25.612Z,7.93
2018-03-22T19:40:51.852Z,5.93
2018-03-22T19:43:18.067Z,5.30
2018-03-22T19:45:44.414Z,4.30
2018-03-22T19:48:10.664Z,2.70
2018-03-22T19:50:38.349Z,2.93
2018-03-22T19:53:05.360Z,2.63
2018-03-22T19:55:31.802Z,3.97
2018-03-22T19:57:58.062Z,4.00
2018-03-22T20:00:25.067Z,5.30
2018-03-22T20:02:51.378Z,4.90
2018-03-22T20:05:17.684Z,2.73
2018-03-22T20:07:43.963Z,2.93
2018-03-22T20:10:10.288Z,3.73
2018-03-22T20:12:37.289Z,3.67
2018-03-22T20:15:03.594Z,6.80
2018-03-22T20:17:30.541Z,3.33
2018-03-22T20:19:56.802Z,4.87
2018-03-22T20:22:23.128Z,4.70
2018-03-22T20:24:49.495Z,8.97
2018-03-22T20:27:17.233Z,5.00
2018-03-22T20:29:43.500Z,4.70
2018-03-22T20:32:10.492Z,4.87
2018-03-22T20:34:36.818Z,6.07
2018-03-22T20:37:03.228Z,4.70
2018-03-22T20:39:29.740Z,6.00
2018-03-22T20:41:56.729Z,5.97
2018-03-22T20:44:24.050Z,16.97
2018-03-22T20:46:50.300Z,6.83
2018-03-22T20:49:16.599Z,15.90
2018-03-22T20:51:45.350Z,22.30
2018-03-22T20:54:11.656Z,12.10
2018-03-22T20:56:37.934Z,11.13
2018-03-22T20:59:05.198Z,7.90
2018-03-22T21:01:31.570Z,6.20
2018-03-22T21:03:59.389Z,6.00
2018-03-22T21:06:26.331Z,6.60
2018-03-22T21:08:53.636Z,7.57
2018-03-22T21:11:20.918Z,10.37
2018-03-22T21:13:48.039Z,6.23
2018-03-22T21:16:14.376Z,9.20
2018-03-22T21:18:40.622Z,9.87
2018-03-22T21:21:07.650Z,10.67
2018-03-22T21:23:33.944Z,13.40
2018-03-22T21:26:00.405Z,10.80
2018-03-22T21:28:26.682Z,11.27
2018-03-22T21:30:52.923Z,14.17
2018-03-22T21:33:19.224Z,11.10
2018-03-22T21:35:46.317Z,12.20
2018-03-22T21:38:13.075Z,11.50
2018-03-22T21:40:39.260Z,14.60
2018-03-22T21:43:05.472Z,13.07
2018-03-22T21:45:32.464Z,13.87
2018-03-22T21:47:58.753Z,8.53
2018-03-22T21:50:25.011Z,10.67
2018-03-22T21:52:51.296Z,9.20
2018-03-22T21:55:18.349Z,9.17
2018-03-22T21:57:45.450Z,10.27
2018-03-22T22:00:11.727Z,12.30
2018-03-22T22:02:38.036Z,9.63
2018-03-22T22:05:04.985Z,9.70
2018-03-22T22:07:31.994Z,9.73
2018-03-22T22:09:58.292Z,12.30
2018-03-22T22:12:24.520Z,10.30
2018-03-22T22:14:50.727Z,10.30
2018-03-22T22:17:17.000Z,13.10
2018-03-22T22:19:43.385Z,50.10
2018-03-22T22:22:10.276Z,73.60
2018-03-22T22:24:36.444Z,20.10
2018-03-22T22:27:03.484Z,55.50
2018-03-22T22:29:30.422Z,36.20
2018-03-22T22:31:57.428Z,66.67
2018-03-22T22:34:23.715Z,92.97
2018-03-22T22:36:49.938Z,111.37
2018-03-22T22:39:16.102Z,68.70
2018-03-22T22:41:42.338Z,79.67
2018-03-22T22:44:08.538Z,78.80
2018-03-22T22:46:35.419Z,65.70
2018-03-22T22:49:01.904Z,47.97
2018-03-22T22:51:28.084Z,42.57
2018-03-22T22:53:55.788Z,50.60
2018-03-22T22:56:22.188Z,65.73
2018-03-22T22:58:49.188Z,58.93
2018-03-22T23:01:15.473Z,42.00
2018-03-22T23:03:42.590Z,40.87
2018-03-22T23:06:09.630Z,33.80
2018-03-22T23:08:35.927Z,17.33
2018-03-22T23:11:02.403Z,19.57
2018-03-22T23:13:30.223Z,17.60
2018-03-22T23:15:56.604Z,20.10
2018-03-22T23:18:24.400Z,13.00
2018-03-22T23:20:50.714Z,12.90
2018-03-22T23:23:17.658Z,15.33
2018-03-22T23:25:44.784Z,16.60
2018-03-22T23:28:11.046Z,22.90
2018-03-22T23:30:37.250Z,14.50
2018-03-22T23:33:04.295Z,21.40
2018-03-22T23:35:30.535Z,19.50
2018-03-22T23:37:56.859Z,14.40
2018-03-22T23:40:23.761Z,15.77
2018-03-22T23:42:49.936Z,16.87
2018-03-22T23:45:16.926Z,14.70
2018-03-22T23:47:43.221Z,13.43
2018-03-22T23:50:09.426Z,13.30
2018-03-22T23:52:36.364Z,14.23
2018-03-22T23:55:03.374Z,12.00
2018-03-22T23:57:29.640Z,14.97
2018-03-22T23:59:56.650Z,18.80
